sensor_id;sensor_type;location;lat;lon;timestamp;temperature;humidity
6429;DHT22;3247;48.946;10.220;2022-10-16T00:01:09;13.80;99.90
6429;DHT22;3247;48.946;10.220;2022-10-16T00:03:36;13.80;99.90
6429;DHT22;3247;48.946;10.220;2022-10-16T00:06:02;13.70;99.90
6429;DHT22;3247;48.946;10.220;2022-10-16T00:08:28;13.70;99.90
6429;DHT22;3247;48.946;10.220;2022-10-16T00:10:58;13.70;99.90
6429;DHT22;3247;48.946;10.220;2022-10-16T00:13:24;14.00;99.90
6429;DHT22;3247;48.946;10.220;2022-10-16T00:15:49;13.70;99.90
6429;DHT22;3247;48.946;10.220;2022-10-16T00:18:14;13.70;99.90
6429;DHT22;3247;48.946;10.220;2022-10-16T00:20:40;13.60;99.90
6429;DHT22;3247;48.946;10.220;2022-10-16T00:23:05;13.70;99.90
6429;DHT22;3247;48.946;10.220;2022-10-16T00:25:31;13.60;99.90
6429;DHT22;3247;48.946;10.220;2022-10-16T00:27:58;13.70;99.90
6429;DHT22;3247;48.946;10.220;2022-10-16T00:30:24;13.60;99.90
6429;DHT22;3247;48.946;10.220;2022-10-16T00:32:52;13.60;99.90
6429;DHT22;3247;48.946;10.220;2022-10-16T00:35:17;13.60;99.90
6429;DHT22;3247;48.946;10.220;2022-10-16T00:37:42;13.60;99.90
6429;DHT22;3247;48.946;10.220;2022-10-16T00:40:08;13.60;99.90
6429;DHT22;3247;48.946;10.220;2022-10-16T00:42:34;13.60;99.90
6429;DHT22;3247;48.946;10.220;2022-10-16T00:45:00;13.60;99.90
6429;DHT22;3247;48.946;10.220;2022-10-16T00:49:51;13.60;99.90
6429;DHT22;3247;48.946;10.220;2022-10-16T00:52:18;13.70;99.90
6429;DHT22;3247;48.946;10.220;2022-10-16T00:54:44;13.70;99.90
6429;DHT22;3247;48.946;10.220;2022-10-16T00:57:10;13.70;99.90
6429;DHT22;3247;48.946;10.220;2022-10-16T00:59:37;13.70;99.90
6429;DHT22;3247;48.946;10.220;2022-10-16T01:02:04;13.70;99.90
6429;DHT22;3247;48.946;10.220;2022-10-16T01:04:32;13.60;99.90
6429;DHT22;3247;48.946;10.220;2022-10-16T01:14:58;13.80;99.90
6429;DHT22;3247;48.946;10.220;2022-10-16T01:17:38;13.80;99.90
6429;DHT22;3247;48.946;10.220;2022-10-16T01:23:19;13.70;99.90
6429;DHT22;3247;48.946;10.220;2022-10-16T01:25:36;13.70;99.90
6429;DHT22;3247;48.946;10.220;2022-10-16T01:28:03;13.70;99.90
6429;DHT22;3247;48.946;10.220;2022-10-16T01:30:31;13.60;99.90
6429;DHT22;3247;48.946;10.220;2022-10-16T01:33:01;13.60;99.90
6429;DHT22;3247;48.946;10.220;2022-10-16T01:35:30;13.60;99.90
6429;DHT22;3247;48.946;10.220;2022-10-16T01:38:02;13.60;99.90
6429;DHT22;3247;48.946;10.220;2022-10-16T01:40:28;13.60;99.90
6429;DHT22;3247;48.946;10.220;2022-10-16T01:43:05;13.60;99.90
6429;DHT22;3247;48.946;10.220;2022-10-16T01:45:32;13.60;99.90
6429;DHT22;3247;48.946;10.220;2022-10-16T01:47:58;13.60;99.90
6429;DHT22;3247;48.946;10.220;2022-10-16T01:50:25;13.70;99.90
6429;DHT22;3247;48.946;10.220;2022-10-16T01:52:51;13.70;99.90
6429;DHT22;3247;48.946;10.220;2022-10-16T01:55:21;13.70;99.90
6429;DHT22;3247;48.946;10.220;2022-10-16T01:57:48;13.70;99.90
6429;DHT22;3247;48.946;10.220;2022-10-16T02:00:14;13.70;99.90
6429;DHT22;3247;48.946;10.220;2022-10-16T02:02:43;13.70;99.90
6429;DHT22;3247;48.946;10.220;2022-10-16T02:05:15;13.70;99.90
6429;DHT22;3247;48.946;10.220;2022-10-16T02:07:41;13.70;99.90
6429;DHT22;3247;48.946;10.220;2022-10-16T02:10:07;13.70;99.90
6429;DHT22;3247;48.946;10.220;2022-10-16T02:12:33;13.70;99.90
6429;DHT22;3247;48.946;10.220;2022-10-16T02:15:01;13.60;99.90
6429;DHT22;3247;48.946;10.220;2022-10-16T02:17:27;13.60;99.90
6429;DHT22;3247;48.946;10.220;2022-10-16T02:19:53;13.60;99.90
6429;DHT22;3247;48.946;10.220;2022-10-16T02:22:35;13.50;99.90
6429;DHT22;3247;48.946;10.220;2022-10-16T02:25:13;13.40;99.90
6429;DHT22;3247;48.946;10.220;2022-10-16T02:30:11;13.30;99.90
6429;DHT22;3247;48.946;10.220;2022-10-16T02:32:39;13.20;99.90
6429;DHT22;3247;48.946;10.220;2022-10-16T02:35:07;13.20;99.90
6429;DHT22;3247;48.946;10.220;2022-10-16T02:37:33;13.20;99.90
6429;DHT22;3247;48.946;10.220;2022-10-16T02:39:59;13.20;99.90
6429;DHT22;3247;48.946;10.220;2022-10-16T02:42:29;13.10;99.90
6429;DHT22;3247;48.946;10.220;2022-10-16T02:44:54;13.10;99.90
6429;DHT22;3247;48.946;10.220;2022-10-16T02:47:20;13.10;99.90
6429;DHT22;3247;48.946;10.220;2022-10-16T02:49:45;13.10;99.90
6429;DHT22;3247;48.946;10.220;2022-10-16T02:52:11;13.10;99.90
6429;DHT22;3247;48.946;10.220;2022-10-16T02:54:36;13.10;99.90
6429;DHT22;3247;48.946;10.220;2022-10-16T02:57:02;13.10;99.90
6429;DHT22;3247;48.946;10.220;2022-10-16T02:59:27;13.10;99.90
6429;DHT22;3247;48.946;10.220;2022-10-16T03:01:52;13.10;99.90
6429;DHT22;3247;48.946;10.220;2022-10-16T03:04:18;13.00;99.90
6429;DHT22;3247;48.946;10.220;2022-10-16T03:06:43;13.00;99.90
6429;DHT22;3247;48.946;10.220;2022-10-16T03:09:09;13.00;99.90
6429;DHT22;3247;48.946;10.220;2022-10-16T03:11:34;13.00;99.90
6429;DHT22;3247;48.946;10.220;2022-10-16T03:14:00;13.00;99.90
6429;DHT22;3247;48.946;10.220;2022-10-16T03:16:25;13.00;99.90
6429;DHT22;3247;48.946;10.220;2022-10-16T03:18:51;13.00;99.90
6429;DHT22;3247;48.946;10.220;2022-10-16T03:21:17;13.10;99.90
6429;DHT22;3247;48.946;10.220;2022-10-16T03:23:42;13.10;99.90
6429;DHT22;3247;48.946;10.220;2022-10-16T03:26:08;13.10;99.90
6429;DHT22;3247;48.946;10.220;2022-10-16T03:28:33;13.10;99.90
6429;DHT22;3247;48.946;10.220;2022-10-16T03:30:58;13.10;99.90
6429;DHT22;3247;48.946;10.220;2022-10-16T03:33:24;13.10;99.90
6429;DHT22;3247;48.946;10.220;2022-10-16T03:35:53;13.10;99.90
6429;DHT22;3247;48.946;10.220;2022-10-16T03:38:19;13.10;99.90
6429;DHT22;3247;48.946;10.220;2022-10-16T03:40:44;13.10;99.90
6429;DHT22;3247;48.946;10.220;2022-10-16T03:43:09;13.10;99.90
6429;DHT22;3247;48.946;10.220;2022-10-16T03:45:35;13.10;99.90
6429;DHT22;3247;48.946;10.220;2022-10-16T03:48:00;13.10;99.90
6429;DHT22;3247;48.946;10.220;2022-10-16T03:50:27;13.10;99.90
6429;DHT22;3247;48.946;10.220;2022-10-16T03:52:53;13.20;99.90
6429;DHT22;3247;48.946;10.220;2022-10-16T03:55:18;13.20;99.90
6429;DHT22;3247;48.946;10.220;2022-10-16T03:57:44;13.20;99.90
6429;DHT22;3247;48.946;10.220;2022-10-16T04:00:09;13.20;99.90
6429;DHT22;3247;48.946;10.220;2022-10-16T04:02:35;13.20;99.90
6429;DHT22;3247;48.946;10.220;2022-10-16T04:05:00;13.20;99.90
6429;DHT22;3247;48.946;10.220;2022-10-16T04:07:26;13.20;99.90
6429;DHT22;3247;48.946;10.220;2022-10-16T04:09:52;13.10;99.90
6429;DHT22;3247;48.946;10.220;2022-10-16T04:12:17;13.10;99.90
6429;DHT22;3247;48.946;10.220;2022-10-16T04:14:43;13.10;99.90
6429;DHT22;3247;48.946;10.220;2022-10-16T04:17:08;13.10;99.90
6429;DHT22;3247;48.946;10.220;2022-10-16T04:19:33;13.10;99.90
6429;DHT22;3247;48.946;10.220;2022-10-16T04:21:59;13.10;99.90
6429;DHT22;3247;48.946;10.220;2022-10-16T04:24:24;13.10;99.90
6429;DHT22;3247;48.946;10.220;2022-10-16T04:26:50;13.10;99.90
6429;DHT22;3247;48.946;10.220;2022-10-16T04:29:15;13.10;99.90
6429;DHT22;3247;48.946;10.220;2022-10-16T04:31:41;13.20;99.90
6429;DHT22;3247;48.946;10.220;2022-10-16T04:34:06;13.20;99.90
6429;DHT22;3247;48.946;10.220;2022-10-16T04:36:32;13.20;99.90
6429;DHT22;3247;48.946;10.220;2022-10-16T04:38:57;13.20;99.90
6429;DHT22;3247;48.946;10.220;2022-10-16T04:41:22;13.10;99.90
6429;DHT22;3247;48.946;10.220;2022-10-16T04:43:48;13.10;99.90
6429;DHT22;3247;48.946;10.220;2022-10-16T04:46:13;13.00;99.90
6429;DHT22;3247;48.946;10.220;2022-10-16T04:48:39;12.90;99.90
6429;DHT22;3247;48.946;10.220;2022-10-16T04:51:04;12.90;99.90
6429;DHT22;3247;48.946;10.220;2022-10-16T04:53:30;12.90;99.90
6429;DHT22;3247;48.946;10.220;2022-10-16T04:55:56;12.80;99.90
6429;DHT22;3247;48.946;10.220;2022-10-16T04:58:22;12.80;99.90
6429;DHT22;3247;48.946;10.220;2022-10-16T05:00:48;12.70;99.90
6429;DHT22;3247;48.946;10.220;2022-10-16T05:03:13;12.70;99.90
6429;DHT22;3247;48.946;10.220;2022-10-16T05:05:42;12.70;99.90
6429;DHT22;3247;48.946;10.220;2022-10-16T05:08:07;12.60;99.90
6429;DHT22;3247;48.946;10.220;2022-10-16T05:10:33;12.60;99.90
6429;DHT22;3247;48.946;10.220;2022-10-16T05:12:58;12.60;99.90
6429;DHT22;3247;48.946;10.220;2022-10-16T05:15:24;12.60;99.90
6429;DHT22;3247;48.946;10.220;2022-10-16T05:17:52;12.60;99.90
6429;DHT22;3247;48.946;10.220;2022-10-16T05:20:17;12.60;99.90
6429;DHT22;3247;48.946;10.220;2022-10-16T05:22:43;12.50;99.90
6429;DHT22;3247;48.946;10.220;2022-10-16T05:25:08;12.50;99.90
6429;DHT22;3247;48.946;10.220;2022-10-16T05:27:33;12.50;99.90
6429;DHT22;3247;48.946;10.220;2022-10-16T05:29:59;12.50;99.90
6429;DHT22;3247;48.946;10.220;2022-10-16T05:32:24;12.50;99.90
6429;DHT22;3247;48.946;10.220;2022-10-16T05:34:50;12.50;99.90
6429;DHT22;3247;48.946;10.220;2022-10-16T05:37:16;12.60;99.90
6429;DHT22;3247;48.946;10.220;2022-10-16T05:39:41;12.60;99.90
6429;DHT22;3247;48.946;10.220;2022-10-16T05:42:07;12.60;99.90
6429;DHT22;3247;48.946;10.220;2022-10-16T05:44:32;12.70;99.90
6429;DHT22;3247;48.946;10.220;2022-10-16T05:46:58;12.70;99.90
6429;DHT22;3247;48.946;10.220;2022-10-16T05:49:23;12.70;99.90
6429;DHT22;3247;48.946;10.220;2022-10-16T05:51:49;12.70;99.90
6429;DHT22;3247;48.946;10.220;2022-10-16T05:54:14;12.70;99.90
6429;DHT22;3247;48.946;10.220;2022-10-16T05:56:40;12.70;99.90
6429;DHT22;3247;48.946;10.220;2022-10-16T05:59:05;12.70;99.90
6429;DHT22;3247;48.946;10.220;2022-10-16T06:01:31;12.70;99.90
6429;DHT22;3247;48.946;10.220;2022-10-16T06:03:57;12.70;99.90
6429;DHT22;3247;48.946;10.220;2022-10-16T06:06:24;12.80;99.90
6429;DHT22;3247;48.946;10.220;2022-10-16T06:08:51;12.90;99.90
6429;DHT22;3247;48.946;10.220;2022-10-16T06:11:17;13.00;99.90
6429;DHT22;3247;48.946;10.220;2022-10-16T06:13:43;13.00;99.90
6429;DHT22;3247;48.946;10.220;2022-10-16T06:16:11;13.00;99.90
6429;DHT22;3247;48.946;10.220;2022-10-16T06:18:37;13.10;99.90
6429;DHT22;3247;48.946;10.220;2022-10-16T06:21:13;13.10;99.90
6429;DHT22;3247;48.946;10.220;2022-10-16T06:23:39;13.20;99.90
6429;DHT22;3247;48.946;10.220;2022-10-16T06:26:05;13.20;99.90
6429;DHT22;3247;48.946;10.220;2022-10-16T06:28:31;13.20;99.90
6429;DHT22;3247;48.946;10.220;2022-10-16T06:31:01;13.30;99.90
6429;DHT22;3247;48.946;10.220;2022-10-16T06:33:26;13.30;99.90
6429;DHT22;3247;48.946;10.220;2022-10-16T06:35:52;13.30;99.90
6429;DHT22;3247;48.946;10.220;2022-10-16T06:38:17;13.30;99.90
6429;DHT22;3247;48.946;10.220;2022-10-16T06:40:43;13.30;99.90
6429;DHT22;3247;48.946;10.220;2022-10-16T06:43:08;13.40;99.90
6429;DHT22;3247;48.946;10.220;2022-10-16T06:45:34;13.40;99.90
6429;DHT22;3247;48.946;10.220;2022-10-16T06:47:59;13.50;99.90
6429;DHT22;3247;48.946;10.220;2022-10-16T06:50:25;13.50;99.90
6429;DHT22;3247;48.946;10.220;2022-10-16T06:52:50;13.60;99.90
6429;DHT22;3247;48.946;10.220;2022-10-16T06:55:16;13.60;99.90
6429;DHT22;3247;48.946;10.220;2022-10-16T06:57:42;13.70;99.90
6429;DHT22;3247;48.946;10.220;2022-10-16T07:00:08;13.90;99.90
6429;DHT22;3247;48.946;10.220;2022-10-16T07:02:33;14.00;99.90
6429;DHT22;3247;48.946;10.220;2022-10-16T07:04:59;14.20;99.90
6429;DHT22;3247;48.946;10.220;2022-10-16T07:07:24;14.30;99.90
6429;DHT22;3247;48.946;10.220;2022-10-16T07:09:51;14.50;99.90
6429;DHT22;3247;48.946;10.220;2022-10-16T07:12:17;14.80;99.90
6429;DHT22;3247;48.946;10.220;2022-10-16T07:14:43;14.90;99.90
6429;DHT22;3247;48.946;10.220;2022-10-16T07:17:09;15.10;99.90
6429;DHT22;3247;48.946;10.220;2022-10-16T07:19:34;15.40;99.90
6429;DHT22;3247;48.946;10.220;2022-10-16T07:22:00;15.50;99.90
6429;DHT22;3247;48.946;10.220;2022-10-16T07:24:25;15.70;99.90
6429;DHT22;3247;48.946;10.220;2022-10-16T07:26:51;15.80;99.90
6429;DHT22;3247;48.946;10.220;2022-10-16T07:29:18;15.80;99.90
6429;DHT22;3247;48.946;10.220;2022-10-16T07:31:43;15.90;99.90
6429;DHT22;3247;48.946;10.220;2022-10-16T07:34:10;15.90;99.90
6429;DHT22;3247;48.946;10.220;2022-10-16T07:36:35;16.00;99.90
6429;DHT22;3247;48.946;10.220;2022-10-16T07:39:01;16.20;99.90
6429;DHT22;3247;48.946;10.220;2022-10-16T07:41:26;16.30;99.90
6429;DHT22;3247;48.946;10.220;2022-10-16T07:43:52;16.50;99.90
6429;DHT22;3247;48.946;10.220;2022-10-16T07:46:19;16.80;99.90
6429;DHT22;3247;48.946;10.220;2022-10-16T07:48:45;16.80;99.90
6429;DHT22;3247;48.946;10.220;2022-10-16T07:51:22;17.00;99.90
6429;DHT22;3247;48.946;10.220;2022-10-16T07:53:48;17.00;99.90
6429;DHT22;3247;48.946;10.220;2022-10-16T07:56:14;17.10;99.90
6429;DHT22;3247;48.946;10.220;2022-10-16T07:58:40;17.20;99.90
6429;DHT22;3247;48.946;10.220;2022-10-16T08:01:06;17.10;99.90
6429;DHT22;3247;48.946;10.220;2022-10-16T08:03:32;17.20;99.90
6429;DHT22;3247;48.946;10.220;2022-10-16T08:05:58;17.20;99.90
6429;DHT22;3247;48.946;10.220;2022-10-16T08:08:24;17.30;99.90
6429;DHT22;3247;48.946;10.220;2022-10-16T08:10:50;17.60;99.90
6429;DHT22;3247;48.946;10.220;2022-10-16T08:13:15;17.80;99.90
6429;DHT22;3247;48.946;10.220;2022-10-16T08:15:41;18.10;99.90
6429;DHT22;3247;48.946;10.220;2022-10-16T08:18:07;18.60;99.90
6429;DHT22;3247;48.946;10.220;2022-10-16T08:20:32;18.80;99.90
6429;DHT22;3247;48.946;10.220;2022-10-16T08:22:58;18.90;99.90
6429;DHT22;3247;48.946;10.220;2022-10-16T08:25:24;18.70;99.90
6429;DHT22;3247;48.946;10.220;2022-10-16T08:27:50;18.70;99.90
6429;DHT22;3247;48.946;10.220;2022-10-16T08:30:16;18.50;99.90
6429;DHT22;3247;48.946;10.220;2022-10-16T08:32:42;18.50;99.90
6429;DHT22;3247;48.946;10.220;2022-10-16T08:35:08;18.40;99.90
6429;DHT22;3247;48.946;10.220;2022-10-16T08:37:34;18.40;99.90
6429;DHT22;3247;48.946;10.220;2022-10-16T08:40:00;18.30;99.90
6429;DHT22;3247;48.946;10.220;2022-10-16T08:44:59;18.30;99.90
6429;DHT22;3247;48.946;10.220;2022-10-16T08:47:35;18.30;99.90
6429;DHT22;3247;48.946;10.220;2022-10-16T08:50:14;18.20;99.90
6429;DHT22;3247;48.946;10.220;2022-10-16T08:52:43;18.20;99.90
6429;DHT22;3247;48.946;10.220;2022-10-16T08:57:53;18.30;99.90
6429;DHT22;3247;48.946;10.220;2022-10-16T09:00:19;18.30;99.90
6429;DHT22;3247;48.946;10.220;2022-10-16T09:03:03;18.40;99.90
6429;DHT22;3247;48.946;10.220;2022-10-16T09:05:44;18.40;99.90
6429;DHT22;3247;48.946;10.220;2022-10-16T09:16:12;18.50;99.90
6429;DHT22;3247;48.946;10.220;2022-10-16T09:21:14;18.70;99.90
6429;DHT22;3247;48.946;10.220;2022-10-16T09:23:40;18.70;99.90
6429;DHT22;3247;48.946;10.220;2022-10-16T09:26:09;18.70;99.90
6429;DHT22;3247;48.946;10.220;2022-10-16T09:28:35;18.90;99.90
6429;DHT22;3247;48.946;10.220;2022-10-16T09:31:00;19.00;99.90
6429;DHT22;3247;48.946;10.220;2022-10-16T09:33:28;19.00;99.90
6429;DHT22;3247;48.946;10.220;2022-10-16T09:35:55;18.90;99.90
6429;DHT22;3247;48.946;10.220;2022-10-16T09:38:22;19.10;99.90
6429;DHT22;3247;48.946;10.220;2022-10-16T09:40:48;19.20;99.90
6429;DHT22;3247;48.946;10.220;2022-10-16T09:43:21;19.30;99.90
6429;DHT22;3247;48.946;10.220;2022-10-16T09:48:43;19.70;99.90
6429;DHT22;3247;48.946;10.220;2022-10-16T09:53:56;19.60;99.90
6429;DHT22;3247;48.946;10.220;2022-10-16T09:56:24;19.60;99.90
6429;DHT22;3247;48.946;10.220;2022-10-16T09:58:53;19.30;99.90
6429;DHT22;3247;48.946;10.220;2022-10-16T10:01:19;19.40;99.90
6429;DHT22;3247;48.946;10.220;2022-10-16T10:03:45;19.40;99.90
6429;DHT22;3247;48.946;10.220;2022-10-16T10:06:22;19.60;99.90
6429;DHT22;3247;48.946;10.220;2022-10-16T10:08:58;19.40;99.90
6429;DHT22;3247;48.946;10.220;2022-10-16T10:11:41;19.40;99.90
6429;DHT22;3247;48.946;10.220;2022-10-16T10:17:12;19.60;99.90
6429;DHT22;3247;48.946;10.220;2022-10-16T10:27:39;20.20;99.90
6429;DHT22;3247;48.946;10.220;2022-10-16T10:32:58;20.20;99.90
6429;DHT22;3247;48.946;10.220;2022-10-16T10:35:28;20.40;99.90
6429;DHT22;3247;48.946;10.220;2022-10-16T10:40:43;20.50;99.90
6429;DHT22;3247;48.946;10.220;2022-10-16T10:43:23;20.50;99.90
6429;DHT22;3247;48.946;10.220;2022-10-16T10:45:52;20.40;99.90
6429;DHT22;3247;48.946;10.220;2022-10-16T10:48:44;20.50;99.90
6429;DHT22;3247;48.946;10.220;2022-10-16T10:51:20;20.50;99.90
6429;DHT22;3247;48.946;10.220;2022-10-16T10:56:22;20.50;99.90
6429;DHT22;3247;48.946;10.220;2022-10-16T10:59:01;20.60;99.90
6429;DHT22;3247;48.946;10.220;2022-10-16T11:06:35;21.20;99.90
6429;DHT22;3247;48.946;10.220;2022-10-16T11:09:12;21.50;99.90
6429;DHT22;3247;48.946;10.220;2022-10-16T11:11:41;21.60;99.90
6429;DHT22;3247;48.946;10.220;2022-10-16T11:14:17;21.80;99.90
6429;DHT22;3247;48.946;10.220;2022-10-16T11:19:22;22.00;99.90
6429;DHT22;3247;48.946;10.220;2022-10-16T11:24:53;21.80;99.90
6429;DHT22;3247;48.946;10.220;2022-10-16T11:27:23;22.20;99.90
6429;DHT22;3247;48.946;10.220;2022-10-16T11:29:58;22.10;99.90
6429;DHT22;3247;48.946;10.220;2022-10-16T11:32:34;22.20;99.90
6429;DHT22;3247;48.946;10.220;2022-10-16T11:35:02;22.10;99.90
6429;DHT22;3247;48.946;10.220;2022-10-16T11:37:31;22.10;99.90
6429;DHT22;3247;48.946;10.220;2022-10-16T11:39:59;21.80;99.90
6429;DHT22;3247;48.946;10.220;2022-10-16T11:42:30;21.60;99.90
6429;DHT22;3247;48.946;10.220;2022-10-16T11:47:51;21.30;99.90
6429;DHT22;3247;48.946;10.220;2022-10-16T11:50:39;21.30;99.90
6429;DHT22;3247;48.946;10.220;2022-10-16T11:53:11;21.20;99.90
6429;DHT22;3247;48.946;10.220;2022-10-16T11:55:39;21.10;99.90
6429;DHT22;3247;48.946;10.220;2022-10-16T12:00:58;21.10;99.90
6429;DHT22;3247;48.946;10.220;2022-10-16T12:03:48;21.10;99.90
6429;DHT22;3247;48.946;10.220;2022-10-16T12:06:19;21.10;99.90
6429;DHT22;3247;48.946;10.220;2022-10-16T12:08:48;21.00;99.90
6429;DHT22;3247;48.946;10.220;2022-10-16T12:16:57;21.00;99.90
6429;DHT22;3247;48.946;10.220;2022-10-16T12:19:23;21.00;99.90
6429;DHT22;3247;48.946;10.220;2022-10-16T12:21:55;21.00;99.90
6429;DHT22;3247;48.946;10.220;2022-10-16T12:24:31;21.00;99.90
6429;DHT22;3247;48.946;10.220;2022-10-16T12:26:57;20.90;99.90
6429;DHT22;3247;48.946;10.220;2022-10-16T12:29:38;21.00;99.90
6429;DHT22;3247;48.946;10.220;2022-10-16T12:32:05;21.00;99.90
6429;DHT22;3247;48.946;10.220;2022-10-16T12:39:34;20.90;99.90
6429;DHT22;3247;48.946;10.220;2022-10-16T12:42:02;21.00;99.90
6429;DHT22;3247;48.946;10.220;2022-10-16T12:44:31;21.20;99.90
6429;DHT22;3247;48.946;10.220;2022-10-16T12:46:57;21.10;99.90
6429;DHT22;3247;48.946;10.220;2022-10-16T12:49:29;21.20;99.90
6429;DHT22;3247;48.946;10.220;2022-10-16T12:52:04;21.10;99.90
6429;DHT22;3247;48.946;10.220;2022-10-16T12:54:38;21.20;99.90
6429;DHT22;3247;48.946;10.220;2022-10-16T12:59:42;21.30;99.90
6429;DHT22;3247;48.946;10.220;2022-10-16T13:02:18;21.20;99.90
6429;DHT22;3247;48.946;10.220;2022-10-16T13:12:21;21.10;99.90
6429;DHT22;3247;48.946;10.220;2022-10-16T13:14:53;21.10;99.90
6429;DHT22;3247;48.946;10.220;2022-10-16T13:17:24;21.10;99.90
6429;DHT22;3247;48.946;10.220;2022-10-16T13:25:17;21.20;99.90
6429;DHT22;3247;48.946;10.220;2022-10-16T13:30:22;21.10;99.90
6429;DHT22;3247;48.946;10.220;2022-10-16T13:32:49;21.10;99.90
6429;DHT22;3247;48.946;10.220;2022-10-16T13:35:18;21.10;99.90
6429;DHT22;3247;48.946;10.220;2022-10-16T13:37:43;21.10;99.90
6429;DHT22;3247;48.946;10.220;2022-10-16T13:40:17;21.00;99.90
6429;DHT22;3247;48.946;10.220;2022-10-16T13:42:43;20.90;99.90
6429;DHT22;3247;48.946;10.220;2022-10-16T13:45:19;20.80;99.90
6429;DHT22;3247;48.946;10.220;2022-10-16T13:47:45;20.70;99.90
6429;DHT22;3247;48.946;10.220;2022-10-16T13:50:17;20.70;99.90
6429;DHT22;3247;48.946;10.220;2022-10-16T13:52:43;20.60;99.90
6429;DHT22;3247;48.946;10.220;2022-10-16T13:55:12;20.50;99.90
6429;DHT22;3247;48.946;10.220;2022-10-16T13:57:38;20.50;99.90
6429;DHT22;3247;48.946;10.220;2022-10-16T14:00:16;20.40;99.90
6429;DHT22;3247;48.946;10.220;2022-10-16T14:02:42;20.40;99.90
6429;DHT22;3247;48.946;10.220;2022-10-16T14:05:08;20.40;99.90
6429;DHT22;3247;48.946;10.220;2022-10-16T14:07:34;20.40;99.90
6429;DHT22;3247;48.946;10.220;2022-10-16T14:10:01;20.50;99.90
6429;DHT22;3247;48.946;10.220;2022-10-16T14:12:26;20.60;99.90
6429;DHT22;3247;48.946;10.220;2022-10-16T14:14:53;20.40;99.90
6429;DHT22;3247;48.946;10.220;2022-10-16T14:17:26;20.50;99.90
6429;DHT22;3247;48.946;10.220;2022-10-16T14:19:53;20.50;99.90
6429;DHT22;3247;48.946;10.220;2022-10-16T14:22:33;20.50;99.90
6429;DHT22;3247;48.946;10.220;2022-10-16T14:24:58;20.60;99.90
6429;DHT22;3247;48.946;10.220;2022-10-16T14:27:34;20.60;99.90
6429;DHT22;3247;48.946;10.220;2022-10-16T14:30:19;20.80;99.90
6429;DHT22;3247;48.946;10.220;2022-10-16T14:32:53;20.80;99.90
6429;DHT22;3247;48.946;10.220;2022-10-16T14:35:38;20.80;99.90
6429;DHT22;3247;48.946;10.220;2022-10-16T14:38:04;20.80;99.90
6429;DHT22;3247;48.946;10.220;2022-10-16T14:40:32;20.80;99.90
6429;DHT22;3247;48.946;10.220;2022-10-16T14:42:58;20.70;99.90
6429;DHT22;3247;48.946;10.220;2022-10-16T14:45:25;20.70;99.90
6429;DHT22;3247;48.946;10.220;2022-10-16T14:47:58;20.60;99.90
6429;DHT22;3247;48.946;10.220;2022-10-16T14:50:24;20.50;99.90
6429;DHT22;3247;48.946;10.220;2022-10-16T14:52:50;20.70;99.90
6429;DHT22;3247;48.946;10.220;2022-10-16T14:55:15;20.60;99.90
6429;DHT22;3247;48.946;10.220;2022-10-16T14:57:42;20.90;99.90
6429;DHT22;3247;48.946;10.220;2022-10-16T15:00:18;20.70;99.90
6429;DHT22;3247;48.946;10.220;2022-10-16T15:02:44;20.60;99.90
6429;DHT22;3247;48.946;10.220;2022-10-16T15:07:39;20.40;99.90
6429;DHT22;3247;48.946;10.220;2022-10-16T15:10:04;20.20;99.90
6429;DHT22;3247;48.946;10.220;2022-10-16T15:12:30;20.00;99.90
6429;DHT22;3247;48.946;10.220;2022-10-16T15:14:55;19.80;99.90
6429;DHT22;3247;48.946;10.220;2022-10-16T15:17:21;19.70;99.90
6429;DHT22;3247;48.946;10.220;2022-10-16T15:19:46;19.60;99.90
6429;DHT22;3247;48.946;10.220;2022-10-16T15:22:12;19.50;99.90
6429;DHT22;3247;48.946;10.220;2022-10-16T15:24:37;19.40;99.90
6429;DHT22;3247;48.946;10.220;2022-10-16T15:27:03;19.40;99.90
6429;DHT22;3247;48.946;10.220;2022-10-16T15:29:29;19.30;99.90
6429;DHT22;3247;48.946;10.220;2022-10-16T15:31:54;19.30;99.90
6429;DHT22;3247;48.946;10.220;2022-10-16T15:34:20;19.20;99.90
6429;DHT22;3247;48.946;10.220;2022-10-16T15:36:45;19.20;99.90
6429;DHT22;3247;48.946;10.220;2022-10-16T15:39:15;19.10;99.90
6429;DHT22;3247;48.946;10.220;2022-10-16T15:41:40;19.20;99.90
6429;DHT22;3247;48.946;10.220;2022-10-16T15:44:06;19.10;99.90
6429;DHT22;3247;48.946;10.220;2022-10-16T15:46:32;19.10;99.90
6429;DHT22;3247;48.946;10.220;2022-10-16T15:48:59;19.10;99.90
6429;DHT22;3247;48.946;10.220;2022-10-16T15:51:24;18.90;99.90
6429;DHT22;3247;48.946;10.220;2022-10-16T15:53:50;18.90;99.90
6429;DHT22;3247;48.946;10.220;2022-10-16T15:56:16;18.80;99.90
6429;DHT22;3247;48.946;10.220;2022-10-16T15:58:42;18.60;99.90
6429;DHT22;3247;48.946;10.220;2022-10-16T16:01:08;18.50;99.90
6429;DHT22;3247;48.946;10.220;2022-10-16T16:03:35;18.50;99.90
6429;DHT22;3247;48.946;10.220;2022-10-16T16:06:04;18.40;99.90
6429;DHT22;3247;48.946;10.220;2022-10-16T16:08:30;18.40;99.90
6429;DHT22;3247;48.946;10.220;2022-10-16T16:10:59;18.40;99.90
6429;DHT22;3247;48.946;10.220;2022-10-16T16:13:24;18.30;99.90
6429;DHT22;3247;48.946;10.220;2022-10-16T16:15:50;18.30;99.90
6429;DHT22;3247;48.946;10.220;2022-10-16T16:18:15;18.20;99.90
6429;DHT22;3247;48.946;10.220;2022-10-16T16:20:41;18.10;99.90
6429;DHT22;3247;48.946;10.220;2022-10-16T16:23:11;18.10;99.90
6429;DHT22;3247;48.946;10.220;2022-10-16T16:25:37;18.00;99.90
6429;DHT22;3247;48.946;10.220;2022-10-16T16:28:02;17.90;99.90
6429;DHT22;3247;48.946;10.220;2022-10-16T16:30:28;17.90;99.90
6429;DHT22;3247;48.946;10.220;2022-10-16T16:32:53;17.80;99.90
6429;DHT22;3247;48.946;10.220;2022-10-16T16:35:19;17.70;99.90
6429;DHT22;3247;48.946;10.220;2022-10-16T16:37:44;17.70;99.90
6429;DHT22;3247;48.946;10.220;2022-10-16T16:40:10;17.60;99.90
6429;DHT22;3247;48.946;10.220;2022-10-16T16:42:35;17.60;99.90
6429;DHT22;3247;48.946;10.220;2022-10-16T16:45:01;17.50;99.90
6429;DHT22;3247;48.946;10.220;2022-10-16T16:47:26;17.50;99.90
6429;DHT22;3247;48.946;10.220;2022-10-16T16:49:51;17.60;99.90
6429;DHT22;3247;48.946;10.220;2022-10-16T16:52:17;17.50;99.90
6429;DHT22;3247;48.946;10.220;2022-10-16T16:54:42;17.50;99.90
6429;DHT22;3247;48.946;10.220;2022-10-16T16:57:09;17.50;99.90
6429;DHT22;3247;48.946;10.220;2022-10-16T16:59:35;17.40;99.90
6429;DHT22;3247;48.946;10.220;2022-10-16T17:02:01;17.40;99.90
6429;DHT22;3247;48.946;10.220;2022-10-16T17:04:26;17.40;99.90
6429;DHT22;3247;48.946;10.220;2022-10-16T17:06:53;17.30;99.90
6429;DHT22;3247;48.946;10.220;2022-10-16T17:09:18;17.40;99.90
6429;DHT22;3247;48.946;10.220;2022-10-16T17:11:44;17.30;99.90
6429;DHT22;3247;48.946;10.220;2022-10-16T17:14:11;17.30;99.90
6429;DHT22;3247;48.946;10.220;2022-10-16T17:16:37;17.30;99.90
6429;DHT22;3247;48.946;10.220;2022-10-16T17:19:04;17.30;99.90
6429;DHT22;3247;48.946;10.220;2022-10-16T17:21:29;17.20;99.90
6429;DHT22;3247;48.946;10.220;2022-10-16T17:23:57;17.40;99.90
6429;DHT22;3247;48.946;10.220;2022-10-16T17:26:22;17.20;99.90
6429;DHT22;3247;48.946;10.220;2022-10-16T17:28:52;17.20;99.90
6429;DHT22;3247;48.946;10.220;2022-10-16T17:31:19;17.10;99.90